Time;durP1;ratioP1;P1;durP2;ratioP2;P2;SDS_P1;SDS_P2;PMS_P1;PMS_P2;Temp;Humidity;BMP_temperature;BMP_pressure;BME280_temperature;BME280_humidity;BME280_pressure;Samples;Min_cycle;Max_cycle;Signal;HPM_P1;HPM_P2
2021/01/03 05:47:19;;;;;;;9.90;5.90;;;;;;;;;;6159496;22;883549;-81
2021/01/03 05:49:46;;;;;;;7.25;4.68;;;;;;;;;;6232722;23;20413;-82
2021/01/03 05:52:22;;;;;;;9.05;5.47;;;;;;;;;;6231985;23;20015;-82
2021/01/03 05:54:49;;;;;;;8.10;4.72;;;;;;;;;;6233165;23;20382;-81
2021/01/03 05:59:35;;;;;;;8.48;5.45;;;;;;;;;;5098633;28;20365;-83
2021/01/03 06:02:21;;;;;;;7.70;4.82;;;;;;;;;;5093436;22;20037;-83
2021/01/03 06:04:47;;;;;;;7.55;4.85;;;;;;;;;;5070630;28;20024;-84
2021/01/03 06:07:19;;;;;;;8.32;4.93;;;;;;;;;;5070834;28;20039;-81
2021/01/03 06:09:45;;;;;;;7.90;4.90;;;;;;;;;;5071716;28;20102;-83
2021/01/03 06:12:20;;;;;;;9.82;5.60;;;;;;;;;;5082064;28;20029;-83
2021/01/03 06:14:47;;;;;;;7.43;5.18;;;;;;;;;;5090136;28;20032;-83
2021/01/03 06:17:13;;;;;;;8.57;5.18;;;;;;;;;;5085515;28;20032;-83
2021/01/03 06:19:46;;;;;;;9.38;5.03;;;;;;;;;;5089489;28;20042;-83
2021/01/03 06:22:21;;;;;;;7.95;4.97;;;;;;;;;;5090995;28;20013;-83
2021/01/03 06:24:47;;;;;;;9.27;5.53;;;;;;;;;;5088469;28;20035;-82
2021/01/03 06:27:26;;;;;;;7.68;4.53;;;;;;;;;;5089748;28;20021;-82
2021/01/03 06:30:01;;;;;;;8.32;5.05;;;;;;;;;;5080819;28;20013;-83
2021/01/03 06:32:34;;;;;;;7.85;4.75;;;;;;;;;;5082276;28;20374;-83
2021/01/03 06:35:12;;;;;;;8.52;5.15;;;;;;;;;;5088307;28;20107;-83
2021/01/03 06:37:44;;;;;;;6.95;4.60;;;;;;;;;;5090199;28;20028;-83
2021/01/03 06:40:16;;;;;;;9.93;5.32;;;;;;;;;;5082031;28;20057;-82
2021/01/03 06:42:44;;;;;;;7.82;4.38;;;;;;;;;;5086711;28;20476;-82
2021/01/03 06:45:29;;;;;;;8.77;4.20;;;;;;;;;;5089548;28;20071;-82
2021/01/03 06:48:13;;;;;;;7.90;4.72;;;;;;;;;;5089955;28;20035;-82
2021/01/03 06:50:49;;;;;;;6.60;4.57;;;;;;;;;;5080034;28;20060;-83
2021/01/03 06:53:23;;;;;;;10.07;5.60;;;;;;;;;;5086890;28;20166;-83
2021/01/03 06:56:07;;;;;;;7.53;4.88;;;;;;;;;;5091295;28;20031;-83
2021/01/03 06:58:34;;;;;;;8.77;5.13;;;;;;;;;;5084199;28;20032;-82
2021/01/03 07:01:02;;;;;;;7.78;5.15;;;;;;;;;;5085204;28;20013;-83
2021/01/03 07:03:29;;;;;;;9.75;5.28;;;;;;;;;;5087381;28;20111;-82
2021/01/03 07:06:04;;;;;;;9.90;5.57;;;;;;;;;;5080594;28;20020;-83
2021/01/03 07:08:32;;;;;;;8.90;5.85;;;;;;;;;;5076268;28;20028;-83
2021/01/03 07:10:58;;;;;;;11.68;6.07;;;;;;;;;;5075978;28;20369;-82
2021/01/03 07:13:30;;;;;;;11.48;6.93;;;;;;;;;;5065222;28;20039;-83
2021/01/03 07:15:57;;;;;;;12.82;6.97;;;;;;;;;;5064580;28;20377;-82
2021/01/03 07:18:30;;;;;;;12.15;6.63;;;;;;;;;;5064256;28;20025;-83
2021/01/03 07:21:05;;;;;;;11.60;6.88;;;;;;;;;;5073062;28;20024;-82
2021/01/03 07:23:31;;;;;;;10.70;6.65;;;;;;;;;;5074623;28;20026;-82
2021/01/03 07:26:16;;;;;;;13.57;6.43;;;;;;;;;;5073148;28;20463;-82
2021/01/03 07:28:48;;;;;;;10.57;6.63;;;;;;;;;;5068681;28;20112;-82
2021/01/03 07:31:33;;;;;;;12.18;6.10;;;;;;;;;;5072365;28;20038;-82
2021/01/03 07:34:04;;;;;;;10.77;6.43;;;;;;;;;;5069487;28;20025;-83
2021/01/03 07:36:39;;;;;;;9.15;5.88;;;;;;;;;;5073872;28;20089;-82
2021/01/03 07:39:22;;;;;;;9.95;6.53;;;;;;;;;;5070960;28;20092;-83
2021/01/03 07:41:49;;;;;;;10.10;7.63;;;;;;;;;;5074576;28;20361;-82
2021/01/03 07:44:21;;;;;;;12.63;6.15;;;;;;;;;;5072165;28;20021;-82
2021/01/03 07:46:56;;;;;;;11.65;6.30;;;;;;;;;;5074552;28;20055;-82
2021/01/03 07:51:42;;;;;;;12.25;6.63;;;;;;;;;;5048616;28;20412;-81
2021/01/03 07:54:11;;;;;;;11.25;6.82;;;;;;;;;;5033239;28;20021;-80
2021/01/03 07:56:37;;;;;;;11.38;6.65;;;;;;;;;;5030875;28;20029;-79
2021/01/03 07:59:03;;;;;;;9.38;6.47;;;;;;;;;;5034049;28;20040;-79
2021/01/03 08:01:32;;;;;;;10.75;6.47;;;;;;;;;;5039813;28;20038;-80
2021/01/03 08:03:58;;;;;;;10.60;6.10;;;;;;;;;;5044907;28;20026;-80
2021/01/03 08:06:24;;;;;;;10.07;5.38;;;;;;;;;;5037090;28;20040;-81
2021/01/03 08:08:54;;;;;;;15.95;7.32;;;;;;;;;;5036916;28;20498;-80
2021/01/03 08:13:41;;;;;;;8.85;5.40;;;;;;;;;;5114014;27;20739;-81
2021/01/03 08:16:08;;;;;;;9.30;6.55;;;;;;;;;;5102132;28;20030;-81
2021/01/03 08:18:40;;;;;;;10.82;6.15;;;;;;;;;;5101890;28;20096;-82
2021/01/03 08:21:08;;;;;;;8.73;5.53;;;;;;;;;;5097405;28;20040;-82
2021/01/03 08:23:37;;;;;;;10.48;5.78;;;;;;;;;;5097911;28;20023;-80
2021/01/03 08:26:03;;;;;;;9.82;6.80;;;;;;;;;;5100928;28;20391;-82
2021/01/03 08:28:30;;;;;;;9.70;6.18;;;;;;;;;;5096512;28;20023;-81
2021/01/03 08:30:59;;;;;;;10.45;6.15;;;;;;;;;;5092985;28;20030;-81
2021/01/03 08:33:33;;;;;;;12.95;6.22;;;;;;;;;;5099365;28;20028;-81
2021/01/03 08:36:13;;;;;;;13.63;8.60;;;;;;;;;;5101761;28;20024;-80
2021/01/03 08:38:38;;;;;;;13.55;7.53;;;;;;;;;;5104709;28;20032;-81
2021/01/03 08:41:06;;;;;;;11.38;7.90;;;;;;;;;;5102524;28;20099;-80
2021/01/03 08:45:51;;;;;;;13.07;7.95;;;;;;;;;;5100834;27;20347;-82
2021/01/03 08:48:26;;;;;;;13.93;8.98;;;;;;;;;;5084375;28;20021;-79
2021/01/03 08:51:03;;;;;;;15.57;8.75;;;;;;;;;;5077802;28;20051;-81
2021/01/03 08:53:28;;;;;;;15.85;9.73;;;;;;;;;;5087361;28;20029;-82
2021/01/03 08:56:03;;;;;;;13.75;8.25;;;;;;;;;;5080473;28;20102;-83
2021/01/03 08:58:34;;;;;;;15.68;9.30;;;;;;;;;;5081640;28;20025;-83
2021/01/03 09:01:01;;;;;;;13.63;8.85;;;;;;;;;;5077559;28;20469;-84
2021/01/03 09:03:27;;;;;;;15.30;9.75;;;;;;;;;;5082700;28;20024;-83
2021/01/03 09:05:53;;;;;;;17.63;10.45;;;;;;;;;;5075309;28;20037;-83
2021/01/03 09:08:26;;;;;;;18.25;9.88;;;;;;;;;;5075891;28;20031;-84
2021/01/03 09:11:00;;;;;;;14.98;9.95;;;;;;;;;;5080496;28;20604;-83
2021/01/03 09:13:27;;;;;;;13.52;9.45;;;;;;;;;;5078571;28;20105;-83
2021/01/03 09:16:13;;;;;;;14.43;9.07;;;;;;;;;;5081193;28;20051;-84
2021/01/03 09:18:54;;;;;;;15.45;9.75;;;;;;;;;;5074874;28;20608;-83
2021/01/03 09:21:20;;;;;;;14.85;9.23;;;;;;;;;;5079180;28;20017;-82
2021/01/03 09:23:49;;;;;;;13.75;9.90;;;;;;;;;;5078780;28;20059;-82
2021/01/03 09:26:15;;;;;;;14.93;9.80;;;;;;;;;;5079997;28;20048;-82
2021/01/03 09:28:42;;;;;;;16.17;9.13;;;;;;;;;;5081778;28;20481;-82
2021/01/03 09:31:16;;;;;;;18.20;9.93;;;;;;;;;;5079436;28;20029;-84
2021/01/03 09:33:47;;;;;;;20.15;10.05;;;;;;;;;;5087471;28;20143;-82
2021/01/03 09:38:40;;;;;;;17.08;9.63;;;;;;;;;;5121050;27;20356;-82
2021/01/03 09:41:24;;;;;;;14.25;9.32;;;;;;;;;;5123736;28;20028;-82
2021/01/03 09:46:12;;;;;;;16.75;10.80;;;;;;;;;;5092886;28;20371;-82
2021/01/03 09:48:39;;;;;;;15.82;10.50;;;;;;;;;;5097305;28;20032;-82
2021/01/03 09:51:08;;;;;;;18.05;11.85;;;;;;;;;;5077394;28;20039;-81
2021/01/03 09:53:38;;;;;;;15.80;10.80;;;;;;;;;;5069293;28;20025;-80
2021/01/03 09:56:13;;;;;;;16.30;10.45;;;;;;;;;;5070233;28;20032;-83
2021/01/03 09:58:41;;;;;;;17.33;11.13;;;;;;;;;;5075684;28;20055;-82
2021/01/03 10:01:24;;;;;;;19.52;11.02;;;;;;;;;;5094528;28;20020;-81
2021/01/03 10:03:50;;;;;;;16.45;9.80;;;;;;;;;;5076502;28;20404;-82
2021/01/03 10:06:19;;;;;;;17.55;10.13;;;;;;;;;;5077071;28;20029;-81
2021/01/03 10:08:46;;;;;;;17.35;10.00;;;;;;;;;;5088954;28;20025;-82
2021/01/03 10:11:27;;;;;;;18.83;11.80;;;;;;;;;;5076737;28;20035;-82
2021/01/03 10:13:58;;;;;;;24.77;12.25;;;;;;;;;;5078921;28;20032;-82
2021/01/03 10:16:26;;;;;;;20.35;11.23;;;;;;;;;;5082225;28;20701;-82
2021/01/03 10:18:52;;;;;;;19.17;11.57;;;;;;;;;;5093510;28;20032;-82
2021/01/03 10:21:34;;;;;;;15.35;10.82;;;;;;;;;;5082032;28;20016;-83
2021/01/03 10:24:02;;;;;;;18.00;11.48;;;;;;;;;;5083602;28;20046;-83
2021/01/03 10:26:31;;;;;;;18.55;12.35;;;;;;;;;;5079902;28;20027;-82
2021/01/03 10:28:57;;;;;;;17.17;11.40;;;;;;;;;;5079856;28;20453;-83
2021/01/03 10:31:24;;;;;;;19.05;11.68;;;;;;;;;;5089808;28;20016;-84
2021/01/03 10:33:50;;;;;;;19.25;11.75;;;;;;;;;;5070502;28;20107;-82
2021/01/03 10:36:20;;;;;;;17.55;11.45;;;;;;;;;;5071759;28;20090;-83
2021/01/03 10:38:47;;;;;;;19.63;11.38;;;;;;;;;;5077543;28;20116;-82
2021/01/03 10:41:13;;;;;;;21.70;11.65;;;;;;;;;;5070709;28;20024;-84
2021/01/03 10:43:39;;;;;;;21.48;14.13;;;;;;;;;;5073707;28;20020;-84
2021/01/03 10:46:05;;;;;;;23.77;14.20;;;;;;;;;;5071407;28;20058;-84
2021/01/03 10:48:31;;;;;;;22.50;13.95;;;;;;;;;;5068777;28;20029;-84
2021/01/03 10:50:57;;;;;;;24.60;13.88;;;;;;;;;;5066675;28;20107;-84
2021/01/03 10:53:26;;;;;;;25.60;17.67;;;;;;;;;;5087803;28;20044;-83
2021/01/03 10:55:52;;;;;;;23.90;16.58;;;;;;;;;;5078638;28;20137;-83
2021/01/03 10:58:18;;;;;;;20.55;12.82;;;;;;;;;;5087556;28;20039;-83
2021/01/03 11:00:44;;;;;;;20.48;13.23;;;;;;;;;;5061947;28;20032;-83
2021/01/03 11:03:10;;;;;;;21.20;12.40;;;;;;;;;;5073137;28;20024;-82
2021/01/03 11:05:36;;;;;;;22.48;13.73;;;;;;;;;;5091916;28;20389;-84
2021/01/03 11:08:02;;;;;;;22.75;15.43;;;;;;;;;;5099480;28;20089;-82
2021/01/03 11:10:28;;;;;;;23.23;14.55;;;;;;;;;;5077319;28;20039;-83
2021/01/03 11:12:54;;;;;;;21.52;13.15;;;;;;;;;;5063180;28;20023;-82
2021/01/03 11:15:20;;;;;;;24.90;14.05;;;;;;;;;;5095798;28;20024;-83
2021/01/03 11:17:46;;;;;;;21.88;14.30;;;;;;;;;;5097963;28;20667;-82
2021/01/03 11:20:12;;;;;;;26.63;14.82;;;;;;;;;;5083389;28;20064;-82
2021/01/03 11:22:38;;;;;;;17.90;12.38;;;;;;;;;;5061753;28;20024;-82
2021/01/03 11:27:23;;;;;;;21.65;12.95;;;;;;;;;;5105626;27;20360;-86
2021/01/03 11:29:50;;;;;;;22.13;13.10;;;;;;;;;;5105071;28;20028;-84
2021/01/03 11:32:26;;;;;;;18.67;12.77;;;;;;;;;;5086452;28;20024;-84
2021/01/03 11:34:52;;;;;;;20.83;13.70;;;;;;;;;;5083999;28;20107;-84
2021/01/03 11:37:23;;;;;;;19.60;12.10;;;;;;;;;;5088583;28;20039;-84
2021/01/03 11:39:51;;;;;;;26.33;16.63;;;;;;;;;;5084928;28;20050;-84
2021/01/03 11:42:38;;;;;;;45.00;23.83;;;;;;;;;;5079076;28;20048;-84
2021/01/03 11:45:06;;;;;;;33.63;18.45;;;;;;;;;;5069143;28;20032;-84
2021/01/03 11:47:32;;;;;;;27.38;18.27;;;;;;;;;;5091950;28;20028;-84
2021/01/03 11:50:00;;;;;;;23.77;14.43;;;;;;;;;;5092087;28;20028;-84
2021/01/03 11:52:27;;;;;;;21.35;13.93;;;;;;;;;;5073559;28;20032;-84
2021/01/03 11:54:53;;;;;;;21.45;12.13;;;;;;;;;;5073296;28;20056;-83
2021/01/03 11:57:19;;;;;;;20.88;12.38;;;;;;;;;;5079727;28;20033;-84
2021/01/03 11:59:45;;;;;;;20.35;11.90;;;;;;;;;;5084753;28;20488;-84
2021/01/03 12:02:11;;;;;;;17.25;11.32;;;;;;;;;;5102848;22;20051;-82
2021/01/03 12:04:38;;;;;;;18.92;11.27;;;;;;;;;;5088417;28;20031;-82
2021/01/03 12:07:06;;;;;;;17.38;11.52;;;;;;;;;;5089532;28;20044;-82
2021/01/03 12:09:32;;;;;;;23.52;14.02;;;;;;;;;;5089361;28;20021;-81
2021/01/03 12:11:58;;;;;;;20.73;12.60;;;;;;;;;;5096124;28;20040;-82
2021/01/03 12:14:25;;;;;;;18.38;11.25;;;;;;;;;;5103853;28;20814;-81
2021/01/03 12:17:03;;;;;;;19.20;11.70;;;;;;;;;;5106124;28;20442;-81
2021/01/03 12:19:29;;;;;;;19.27;11.50;;;;;;;;;;5109333;28;20028;-81
2021/01/03 12:21:58;;;;;;;19.90;13.10;;;;;;;;;;5107919;28;20029;-81
2021/01/03 12:24:24;;;;;;;21.50;12.65;;;;;;;;;;5105581;28;20032;-82
2021/01/03 12:26:51;;;;;;;18.52;12.00;;;;;;;;;;5089197;28;20361;-82
2021/01/03 12:29:17;;;;;;;20.42;12.68;;;;;;;;;;5108132;28;20020;-82
2021/01/03 12:31:44;;;;;;;18.98;12.05;;;;;;;;;;5104893;28;20032;-82
2021/01/03 12:34:11;;;;;;;19.88;12.90;;;;;;;;;;5109649;28;20474;-82
2021/01/03 12:36:37;;;;;;;18.90;12.38;;;;;;;;;;5107331;28;20028;-82
2021/01/03 12:39:04;;;;;;;21.75;12.80;;;;;;;;;;5076067;28;20039;-82
2021/01/03 12:41:30;;;;;;;20.30;11.82;;;;;;;;;;5080738;28;20020;-82
2021/01/03 12:43:56;;;;;;;21.20;12.70;;;;;;;;;;5095370;28;20361;-82
2021/01/03 12:46:26;;;;;;;18.88;12.52;;;;;;;;;;5079040;28;20111;-82
2021/01/03 12:48:52;;;;;;;20.75;13.13;;;;;;;;;;5100935;28;20013;-82
2021/01/03 12:51:18;;;;;;;23.27;13.15;;;;;;;;;;5088887;28;20028;-82
2021/01/03 12:53:45;;;;;;;24.10;13.73;;;;;;;;;;5093651;28;20059;-81
2021/01/03 12:56:11;;;;;;;22.23;12.63;;;;;;;;;;5093600;28;20103;-82
2021/01/03 12:58:37;;;;;;;23.55;13.10;;;;;;;;;;5093371;28;20055;-82
2021/01/03 13:01:03;;;;;;;24.20;14.93;;;;;;;;;;5093738;28;20357;-82
2021/01/03 13:03:29;;;;;;;21.33;13.95;;;;;;;;;;5094179;28;20082;-81
2021/01/03 13:05:55;;;;;;;23.75;14.60;;;;;;;;;;5069221;28;20051;-82
2021/01/03 13:08:21;;;;;;;22.45;14.07;;;;;;;;;;5093268;28;20563;-82
2021/01/03 13:10:47;;;;;;;25.60;15.80;;;;;;;;;;5070984;28;20056;-82
2021/01/03 13:13:14;;;;;;;21.58;13.55;;;;;;;;;;5089686;28;20070;-82
2021/01/03 13:15:40;;;;;;;20.23;12.90;;;;;;;;;;5088422;28;20016;-82
2021/01/03 13:18:06;;;;;;;20.25;13.40;;;;;;;;;;5095563;28;20054;-82
2021/01/03 13:20:32;;;;;;;23.00;13.73;;;;;;;;;;5091656;28;20028;-82
2021/01/03 13:22:58;;;;;;;18.50;12.20;;;;;;;;;;5077366;28;20024;-82
2021/01/03 13:25:25;;;;;;;21.73;14.00;;;;;;;;;;5091168;28;20042;-82
2021/01/03 13:27:56;;;;;;;21.55;14.02;;;;;;;;;;5087325;28;20098;-82
2021/01/03 13:30:26;;;;;;;20.00;12.65;;;;;;;;;;5089391;28;20166;-82
2021/01/03 13:33:07;;;;;;;19.85;12.73;;;;;;;;;;5073723;28;20129;-82
2021/01/03 13:35:35;;;;;;;21.70;14.45;;;;;;;;;;5093087;28;20032;-83
2021/01/03 13:40:54;;;;;;;21.77;14.68;;;;;;;;;;5088128;28;20051;-83
2021/01/03 13:43:57;;;;;;;25.13;15.50;;;;;;;;;;5057882;28;20479;-83
2021/01/03 13:46:58;;;;;;;23.38;14.50;;;;;;;;;;5044513;28;20044;-83
2021/01/03 13:49:25;;;;;;;24.77;16.88;;;;;;;;;;5051612;28;20066;-83
2021/01/03 13:51:51;;;;;;;26.90;16.75;;;;;;;;;;5093833;28;20039;-82
2021/01/03 13:54:17;;;;;;;27.73;15.32;;;;;;;;;;5092230;28;20036;-83
2021/01/03 13:56:44;;;;;;;24.90;14.65;;;;;;;;;;5085950;28;20020;-84
2021/01/03 13:59:10;;;;;;;23.85;15.23;;;;;;;;;;5090623;28;20081;-82
2021/01/03 14:01:36;;;;;;;21.92;14.20;;;;;;;;;;5071643;28;20020;-83
2021/01/03 14:07:16;;;;;;;22.90;13.70;;;;;;;;;;5050504;28;20558;-82
2021/01/03 14:09:51;;;;;;;24.08;14.23;;;;;;;;;;5090915;28;20036;-83
2021/01/03 14:17:28;;;;;;;22.50;13.93;;;;;;;;;;5080307;28;20054;-84
2021/01/03 14:19:54;;;;;;;22.00;13.52;;;;;;;;;;5085047;28;20032;-84
2021/01/03 14:22:20;;;;;;;20.13;12.90;;;;;;;;;;5082009;28;20133;-83
2021/01/03 14:24:46;;;;;;;20.38;13.10;;;;;;;;;;5083424;28;20111;-83
2021/01/03 14:27:12;;;;;;;17.75;12.52;;;;;;;;;;5087089;28;20075;-84
2021/01/03 14:29:38;;;;;;;17.50;11.00;;;;;;;;;;5073750;28;20610;-83
2021/01/03 14:32:05;;;;;;;17.58;11.25;;;;;;;;;;5083257;28;20111;-83
2021/01/03 14:34:35;;;;;;;16.85;11.07;;;;;;;;;;5061198;28;20056;-83
2021/01/03 14:37:17;;;;;;;23.23;14.25;;;;;;;;;;5067348;28;20032;-83
2021/01/03 14:39:43;;;;;;;21.70;13.85;;;;;;;;;;5082348;28;20029;-84
2021/01/03 14:42:10;;;;;;;20.80;13.23;;;;;;;;;;5084442;28;20096;-83
2021/01/03 14:44:36;;;;;;;21.33;15.35;;;;;;;;;;5090843;28;20074;-84
2021/01/03 14:47:13;;;;;;;22.58;14.50;;;;;;;;;;5090210;28;20027;-83
2021/01/03 14:49:46;;;;;;;30.10;15.73;;;;;;;;;;5085040;28;20106;-84
2021/01/03 14:52:24;;;;;;;31.23;18.27;;;;;;;;;;5086537;28;20016;-84
2021/01/03 14:54:51;;;;;;;30.95;18.52;;;;;;;;;;5068567;28;20088;-84
2021/01/03 14:57:22;;;;;;;30.15;18.55;;;;;;;;;;5093273;28;20092;-84
2021/01/03 14:59:56;;;;;;;28.40;16.93;;;;;;;;;;5074517;28;20172;-85
2021/01/03 15:02:41;;;;;;;25.05;15.98;;;;;;;;;;5094413;28;20258;-83
2021/01/03 15:05:16;;;;;;;25.27;15.63;;;;;;;;;;5079520;28;20025;-83
2021/01/03 15:07:44;;;;;;;24.77;15.75;;;;;;;;;;5089765;28;20027;-84
2021/01/03 15:10:12;;;;;;;26.90;15.00;;;;;;;;;;5090590;28;20025;-84
2021/01/03 15:12:38;;;;;;;25.48;16.08;;;;;;;;;;5091231;28;20043;-84
2021/01/03 15:15:23;;;;;;;24.02;14.60;;;;;;;;;;5090889;28;20021;-83
2021/01/03 15:18:12;;;;;;;26.27;16.77;;;;;;;;;;5091955;28;20023;-84
2021/01/03 15:20:38;;;;;;;36.05;19.55;;;;;;;;;;5081647;28;20099;-85
2021/01/03 15:23:12;;;;;;;32.45;20.33;;;;;;;;;;5081745;28;20073;-83
2021/01/03 15:25:45;;;;;;;30.50;20.08;;;;;;;;;;5079777;28;20060;-84
2021/01/03 15:30:50;;;;;;;33.38;20.20;;;;;;;;;;5108437;27;20381;-84
2021/01/03 15:33:18;;;;;;;29.70;17.73;;;;;;;;;;5096236;28;20085;-81
2021/01/03 15:35:45;;;;;;;25.95;16.80;;;;;;;;;;5095146;28;20475;-81
2021/01/03 15:38:13;;;;;;;23.23;14.70;;;;;;;;;;5100564;28;20076;-82
2021/01/03 15:40:41;;;;;;;24.08;13.38;;;;;;;;;;5085486;28;20683;-82
2021/01/03 15:43:07;;;;;;;22.17;14.48;;;;;;;;;;5098737;28;20028;-82
2021/01/03 15:47:54;;;;;;;20.90;13.25;;;;;;;;;;5112995;27;20375;-83
2021/01/03 15:50:20;;;;;;;22.48;14.27;;;;;;;;;;5105904;28;20032;-83
2021/01/03 15:52:48;;;;;;;25.60;16.35;;;;;;;;;;5108902;28;20035;-83
2021/01/03 15:55:18;;;;;;;25.20;14.20;;;;;;;;;;5114775;28;20034;-83
2021/01/03 15:57:44;;;;;;;27.25;16.02;;;;;;;;;;5102849;28;20039;-84
2021/01/03 16:00:11;;;;;;;24.35;14.25;;;;;;;;;;5104951;28;20024;-82
2021/01/03 16:02:38;;;;;;;25.42;15.70;;;;;;;;;;5102895;28;20031;-83
2021/01/03 16:05:04;;;;;;;29.50;16.13;;;;;;;;;;5105427;28;20027;-83
2021/01/03 16:07:30;;;;;;;24.27;14.52;;;;;;;;;;5120576;28;20103;-84
2021/01/03 16:09:56;;;;;;;22.45;13.38;;;;;;;;;;5115087;28;20540;-84
2021/01/03 16:12:22;;;;;;;19.80;13.75;;;;;;;;;;5115173;28;20027;-83
2021/01/03 16:14:48;;;;;;;23.00;12.57;;;;;;;;;;5097962;28;20027;-83
2021/01/03 16:17:14;;;;;;;16.55;10.85;;;;;;;;;;5108205;28;20035;-83
2021/01/03 16:19:41;;;;;;;23.08;12.68;;;;;;;;;;5105567;28;20020;-83
2021/01/03 16:22:10;;;;;;;22.63;14.20;;;;;;;;;;5114675;28;20023;-83
2021/01/03 16:24:36;;;;;;;31.40;15.10;;;;;;;;;;5101975;28;20436;-83
2021/01/03 16:27:15;;;;;;;39.33;21.05;;;;;;;;;;5102123;28;20028;-83
2021/01/03 16:30:02;;;;;;;28.55;17.08;;;;;;;;;;5113961;28;20353;-84
2021/01/03 16:32:45;;;;;;;21.10;13.57;;;;;;;;;;5106502;28;20111;-83
2021/01/03 16:35:29;;;;;;;19.50;12.52;;;;;;;;;;5106157;28;20510;-84
2021/01/03 16:37:58;;;;;;;21.23;13.10;;;;;;;;;;5100886;28;20421;-83
2021/01/03 16:40:32;;;;;;;21.70;12.57;;;;;;;;;;5116333;28;20077;-83
2021/01/03 16:43:18;;;;;;;23.85;14.63;;;;;;;;;;5099636;28;20357;-83
2021/01/03 16:45:47;;;;;;;22.25;15.48;;;;;;;;;;5090668;28;20028;-83
2021/01/03 16:48:25;;;;;;;22.40;14.50;;;;;;;;;;5097429;28;20028;-83
2021/01/03 16:50:55;;;;;;;16.98;11.98;;;;;;;;;;5109518;28;20036;-83
2021/01/03 16:53:40;;;;;;;19.13;11.07;;;;;;;;;;5110637;28;20031;-83
2021/01/03 16:56:12;;;;;;;18.35;11.23;;;;;;;;;;5102199;28;20026;-83
2021/01/03 16:58:47;;;;;;;18.08;10.57;;;;;;;;;;5090799;28;20028;-83
2021/01/03 17:01:16;;;;;;;19.48;11.75;;;;;;;;;;5095622;28;20035;-84
2021/01/03 17:03:50;;;;;;;19.45;11.65;;;;;;;;;;5096568;28;20112;-83
2021/01/03 17:06:20;;;;;;;18.77;12.00;;;;;;;;;;5103107;28;20028;-83
2021/01/03 17:09:06;;;;;;;18.05;10.63;;;;;;;;;;5092642;28;20028;-83
2021/01/03 17:11:32;;;;;;;15.50;9.27;;;;;;;;;;5045240;28;20135;-83
2021/01/03 17:14:10;;;;;;;16.40;11.05;;;;;;;;;;5108392;28;20456;-83
2021/01/03 17:16:43;;;;;;;17.15;10.50;;;;;;;;;;5114869;28;20020;-83
2021/01/03 17:19:29;;;;;;;15.90;10.55;;;;;;;;;;5111938;28;20480;-83
2021/01/03 17:22:08;;;;;;;18.13;11.43;;;;;;;;;;5086834;28;20389;-84
2021/01/03 17:24:37;;;;;;;17.85;10.68;;;;;;;;;;5101780;28;20035;-84
2021/01/03 17:27:09;;;;;;;16.60;9.77;;;;;;;;;;5090977;28;20028;-84
2021/01/03 17:29:44;;;;;;;17.80;10.55;;;;;;;;;;5108721;28;20027;-84
2021/01/03 17:32:19;;;;;;;18.25;10.35;;;;;;;;;;5103825;28;20020;-84
2021/01/03 17:34:48;;;;;;;14.13;9.07;;;;;;;;;;5108276;28;20252;-83
2021/01/03 17:39:41;;;;;;;15.98;10.63;;;;;;;;;;5092691;27;20352;-82
2021/01/03 17:42:09;;;;;;;15.35;9.57;;;;;;;;;;5082931;28;20025;-82
2021/01/03 17:44:35;;;;;;;15.00;9.70;;;;;;;;;;5086372;28;20396;-82
2021/01/03 17:47:07;;;;;;;17.08;11.00;;;;;;;;;;5076153;28;20028;-83
2021/01/03 17:49:38;;;;;;;15.73;10.98;;;;;;;;;;5067460;28;20392;-83
2021/01/03 17:52:04;;;;;;;17.20;10.48;;;;;;;;;;5081214;28;20025;-82
2021/01/03 17:54:33;;;;;;;16.00;10.50;;;;;;;;;;5069858;28;20044;-83
2021/01/03 17:56:59;;;;;;;28.05;18.15;;;;;;;;;;5073765;28;20021;-83
2021/01/03 17:59:25;;;;;;;24.67;15.00;;;;;;;;;;5074630;28;20029;-84
2021/01/03 18:01:51;;;;;;;23.48;13.77;;;;;;;;;;5071023;28;20021;-84
2021/01/03 18:04:17;;;;;;;18.25;11.75;;;;;;;;;;5072971;28;20021;-84
2021/01/03 18:06:51;;;;;;;19.80;11.55;;;;;;;;;;5066951;28;20021;-82
2021/01/03 18:09:17;;;;;;;18.58;11.18;;;;;;;;;;5074815;28;20087;-82
2021/01/03 18:11:43;;;;;;;24.80;15.73;;;;;;;;;;5076431;28;20489;-82
2021/01/03 18:14:09;;;;;;;20.25;13.38;;;;;;;;;;5078564;28;20472;-82
2021/01/03 18:16:35;;;;;;;21.77;12.82;;;;;;;;;;5074774;28;20031;-82
2021/01/03 18:19:01;;;;;;;23.15;13.95;;;;;;;;;;5069630;28;20028;-82
2021/01/03 18:21:28;;;;;;;21.02;13.57;;;;;;;;;;5079434;28;20043;-82
2021/01/03 18:23:54;;;;;;;17.77;11.80;;;;;;;;;;5075696;28;20048;-82
2021/01/03 18:26:20;;;;;;;19.35;12.20;;;;;;;;;;5074673;28;20048;-81
2021/01/03 18:28:46;;;;;;;19.92;12.32;;;;;;;;;;5065552;28;20068;-79
2021/01/03 18:31:12;;;;;;;21.83;12.38;;;;;;;;;;5069458;28;20447;-82
2021/01/03 18:33:38;;;;;;;21.80;12.80;;;;;;;;;;5067088;28;20063;-82
2021/01/03 18:36:07;;;;;;;17.25;12.05;;;;;;;;;;5074561;28;20025;-82
2021/01/03 18:38:33;;;;;;;21.48;12.88;;;;;;;;;;5072839;28;20031;-82
2021/01/03 18:40:59;;;;;;;22.23;14.07;;;;;;;;;;5076781;28;20036;-81
2021/01/03 18:43:25;;;;;;;22.70;12.95;;;;;;;;;;5075391;28;20025;-83
2021/01/03 18:49:14;;;;;;;19.77;12.45;;;;;;;;;;5074349;28;20032;-81
2021/01/03 18:51:44;;;;;;;19.50;13.07;;;;;;;;;;5060079;28;20045;-82
2021/01/03 18:54:11;;;;;;;18.92;11.20;;;;;;;;;;5057977;28;20031;-82
2021/01/03 19:00:00;;;;;;;20.17;12.80;;;;;;;;;;5061781;28;20064;-83
2021/01/03 19:02:27;;;;;;;19.50;11.70;;;;;;;;;;5057740;28;20024;-82
2021/01/03 19:08:06;;;;;;;19.98;13.10;;;;;;;;;;5062444;28;20082;-82
2021/01/03 19:10:45;;;;;;;19.05;12.10;;;;;;;;;;5058125;28;20082;-82
2021/01/03 19:25:53;;;;;;;20.05;13.80;;;;;;;;;;5090324;27;20360;-86
2021/01/03 19:28:19;;;;;;;21.92;14.45;;;;;;;;;;5081042;28;20548;-86
2021/01/03 19:30:45;;;;;;;22.13;13.57;;;;;;;;;;5066872;28;20378;-85
2021/01/03 19:33:12;;;;;;;20.73;13.07;;;;;;;;;;5076086;28;20016;-85
2021/01/03 19:35:58;;;;;;;19.88;13.30;;;;;;;;;;5084729;28;20254;-83
2021/01/03 19:38:24;;;;;;;20.55;13.30;;;;;;;;;;5085173;28;20123;-84
2021/01/03 19:40:50;;;;;;;20.45;12.60;;;;;;;;;;5071570;28;20024;-85
2021/01/03 19:43:16;;;;;;;18.70;12.23;;;;;;;;;;5078992;28;20028;-84
2021/01/03 19:45:43;;;;;;;23.13;12.65;;;;;;;;;;5076673;28;20032;-84
2021/01/03 19:57:25;;;;;;;61.75;28.73;;;;;;;;;;5052302;28;20664;-84
2021/01/03 19:59:51;;;;;;;37.08;21.55;;;;;;;;;;5056481;28;20124;-81
2021/01/03 20:02:17;;;;;;;46.67;26.83;;;;;;;;;;5058948;28;20036;-82
2021/01/03 20:04:43;;;;;;;48.42;26.05;;;;;;;;;;5053867;28;20056;-83
2021/01/03 20:07:09;;;;;;;49.20;26.95;;;;;;;;;;5053281;28;20061;-82
2021/01/03 20:09:35;;;;;;;50.22;23.83;;;;;;;;;;5056285;28;20080;-83
2021/01/03 20:12:01;;;;;;;47.45;24.58;;;;;;;;;;5055965;28;20021;-82
2021/01/03 20:14:27;;;;;;;49.78;24.52;;;;;;;;;;5055984;28;20032;-81
2021/01/03 20:16:53;;;;;;;43.10;23.25;;;;;;;;;;5054379;28;20496;-83
2021/01/03 20:19:21;;;;;;;45.40;24.23;;;;;;;;;;5056853;28;20370;-82
2021/01/03 20:21:48;;;;;;;44.55;23.33;;;;;;;;;;5050750;28;20079;-83
2021/01/03 20:24:15;;;;;;;40.13;22.58;;;;;;;;;;5050077;28;20532;-83
2021/01/03 20:26:41;;;;;;;52.95;26.95;;;;;;;;;;5055211;28;20385;-83
2021/01/03 20:29:08;;;;;;;52.00;26.38;;;;;;;;;;5052268;28;20021;-82
2021/01/03 20:31:34;;;;;;;59.40;30.08;;;;;;;;;;5052583;28;20493;-82
2021/01/03 20:33:59;;;;;;;58.85;31.10;;;;;;;;;;5051453;28;20024;-82
2021/01/03 20:36:26;;;;;;;58.53;29.90;;;;;;;;;;5059682;28;20025;-83
2021/01/03 20:38:52;;;;;;;61.60;33.35;;;;;;;;;;5049865;28;20792;-83
2021/01/03 20:41:19;;;;;;;69.25;33.92;;;;;;;;;;5048334;28;20481;-83
2021/01/03 20:43:45;;;;;;;64.80;31.90;;;;;;;;;;5046365;28;20066;-84
2021/01/03 20:46:14;;;;;;;49.88;27.58;;;;;;;;;;5051212;28;20111;-83
2021/01/03 20:48:40;;;;;;;50.38;26.80;;;;;;;;;;5050803;28;20037;-83
2021/01/03 20:51:06;;;;;;;57.78;31.77;;;;;;;;;;5049979;28;20485;-82
2021/01/03 20:53:32;;;;;;;56.25;28.85;;;;;;;;;;5047498;28;20086;-83
2021/01/03 20:55:58;;;;;;;51.90;27.08;;;;;;;;;;5050276;28;20029;-82
2021/01/03 20:58:24;;;;;;;45.08;26.30;;;;;;;;;;5052089;28;20024;-83
2021/01/03 21:03:09;;;;;;;45.80;26.23;;;;;;;;;;5100769;27;20408;-85
2021/01/03 21:05:36;;;;;;;45.10;25.70;;;;;;;;;;5103276;28;20036;-84
2021/01/03 21:08:02;;;;;;;51.85;26.55;;;;;;;;;;5101417;28;20031;-84
2021/01/03 21:10:28;;;;;;;45.83;26.48;;;;;;;;;;5102302;28;20070;-85
2021/01/03 21:15:14;;;;;;;42.85;24.50;;;;;;;;;;5076654;28;20377;-84
2021/01/03 21:17:40;;;;;;;36.60;21.30;;;;;;;;;;5059087;28;20439;-84
2021/01/03 21:20:09;;;;;;;38.65;23.38;;;;;;;;;;5059126;28;20128;-83
2021/01/03 21:22:39;;;;;;;40.40;21.80;;;;;;;;;;5054650;28;20436;-84
2021/01/03 21:25:05;;;;;;;35.17;20.58;;;;;;;;;;5068727;28;20025;-84
2021/01/03 21:27:51;;;;;;;35.92;20.63;;;;;;;;;;5054909;28;20550;-83
2021/01/03 21:30:21;;;;;;;34.60;20.15;;;;;;;;;;5070619;28;20118;-82
2021/01/03 21:32:56;;;;;;;32.95;19.70;;;;;;;;;;5067327;28;20032;-84